createdAt,value
2022-09-10T00:02:36.322Z,73.62
2022-09-10T00:05:04.572Z,73.52
2022-09-10T00:07:32.931Z,73.71
2022-09-10T00:10:10.508Z,73.39
2022-09-10T00:12:48.381Z,73.50
2022-09-10T00:15:25.571Z,73.42
2022-09-10T00:18:01.584Z,73.03
2022-09-10T00:20:42.236Z,73.25
2022-09-10T00:24:09.468Z,73.55
2022-09-10T00:26:46.085Z,72.91
2022-09-10T00:29:24.497Z,72.97
2022-09-10T00:32:00.342Z,73.10
2022-09-10T00:34:28.097Z,73.14
2022-09-10T00:39:24.294Z,74.01
2022-09-10T00:42:00.246Z,73.94
2022-09-10T00:44:42.683Z,73.94
2022-09-10T00:47:46.313Z,73.82
2022-09-10T00:50:39.233Z,73.57
2022-09-10T00:53:26.956Z,72.90
2022-09-10T00:56:04.967Z,72.94
2022-09-10T00:58:41.562Z,73.69
2022-09-10T01:01:42.322Z,73.43
2022-09-10T01:04:42.976Z,73.11
2022-09-10T01:07:43.973Z,73.63
2022-09-10T01:10:49.916Z,73.56
2022-09-10T01:13:49.483Z,73.40
2022-09-10T01:16:52.889Z,73.42
2022-09-10T01:19:53.420Z,74.08
2022-09-10T01:22:58.137Z,73.70
2022-09-10T01:25:46.421Z,73.32
2022-09-10T01:28:48.964Z,73.87
2022-09-10T01:31:40.283Z,73.77
2022-09-10T01:34:43.109Z,73.67
2022-09-10T01:37:31.674Z,73.67
2022-09-10T01:40:08.684Z,74.12
2022-09-10T01:42:45.874Z,74.29
2022-09-10T01:45:46.064Z,74.50
2022-09-10T01:48:55.923Z,74.59
2022-09-10T01:51:32.149Z,74.79
2022-09-10T01:54:46.904Z,75.07
2022-09-10T01:57:52.953Z,74.54
2022-09-10T02:00:29.629Z,73.83
2022-09-10T02:03:16.837Z,74.08
2022-09-10T02:06:07.451Z,74.06
2022-09-10T02:08:47.317Z,73.55
2022-09-10T02:11:15.365Z,74.56
2022-09-10T02:14:14.117Z,74.68
2022-09-10T02:17:33.234Z,73.47
2022-09-10T02:20:11.536Z,73.69
2022-09-10T02:22:42.893Z,74.05
2022-09-10T02:25:27.968Z,74.14
2022-09-10T02:27:58.062Z,73.57
2022-09-10T02:30:34.146Z,74.94
2022-09-10T02:33:11.994Z,74.25
2022-09-10T02:35:48.372Z,74.34
2022-09-10T02:38:48.637Z,74.57
2022-09-10T02:41:17.238Z,74.55
2022-09-10T02:43:53.349Z,74.69
2022-09-10T02:46:30.900Z,74.59
2022-09-10T02:49:07.241Z,73.99
2022-09-10T02:51:46.957Z,73.33
2022-09-10T02:54:47.410Z,73.59
2022-09-10T02:57:15.183Z,74.07
2022-09-10T03:01:36.420Z,73.94
2022-09-10T03:04:16.208Z,74.57
2022-09-10T03:06:54.943Z,74.34
2022-09-10T03:09:31.810Z,73.64
2022-09-10T03:11:59.724Z,73.88
2022-09-10T03:17:08.849Z,73.93
2022-09-10T03:19:43.878Z,74.10
2022-09-10T03:22:19.086Z,73.81
2022-09-10T03:24:54.452Z,73.85
2022-09-10T03:27:37.070Z,74.50
2022-09-10T03:30:07.005Z,74.70
2022-09-10T03:32:42.510Z,74.41
2022-09-10T03:35:17.928Z,73.92
2022-09-10T03:37:44.208Z,74.12
2022-09-10T03:40:10.899Z,74.68
2022-09-10T03:42:45.970Z,73.85
2022-09-10T03:45:21.017Z,73.80
2022-09-10T03:48:08.867Z,74.20
2022-09-10T03:50:36.230Z,74.63
2022-09-10T03:53:03.405Z,74.62
2022-09-10T03:55:38.165Z,73.99
2022-09-10T03:58:13.429Z,74.03
2022-09-10T04:00:47.892Z,74.92
2022-09-10T04:03:14.351Z,74.15
2022-09-10T04:05:50.281Z,74.30
2022-09-10T04:08:53.964Z,74.15
2022-09-10T04:11:53.818Z,74.38
2022-09-10T04:14:22.803Z,74.33
2022-09-10T04:17:52.381Z,74.48
2022-09-10T04:20:21.778Z,73.32
2022-09-10T04:24:52.179Z,73.91
2022-09-10T04:27:52.810Z,73.32
2022-09-10T04:30:53.781Z,74.04
2022-09-10T04:33:33.552Z,74.17
2022-09-10T04:38:18.894Z,74.18
2022-09-10T04:40:47.635Z,74.08
2022-09-10T04:43:40.444Z,74.16
2022-09-10T04:46:17.692Z,73.60
2022-09-10T04:48:45.824Z,73.86
2022-09-10T04:53:21.541Z,73.59
2022-09-10T04:55:57.772Z,73.93
2022-09-10T04:58:38.440Z,74.09
2022-09-10T05:01:16.803Z,74.43
2022-09-10T05:03:46.032Z,74.53
2022-09-10T05:06:14.690Z,74.45
2022-09-10T05:08:42.857Z,74.10
2022-09-10T05:11:11.537Z,73.92
2022-09-10T05:13:39.489Z,73.77
2022-09-10T05:16:16.930Z,74.06
2022-09-10T05:18:53.804Z,73.76
2022-09-10T05:21:53.408Z,73.83
2022-09-10T05:24:55.318Z,73.60
2022-09-10T05:27:55.600Z,73.65
2022-09-10T05:30:56.397Z,73.73
2022-09-10T05:33:40.626Z,73.96
2022-09-10T05:36:10.904Z,74.10
2022-09-10T05:40:48.290Z,73.50
2022-09-10T05:43:14.945Z,73.61
2022-09-10T05:45:43.428Z,73.32
2022-09-10T05:48:10.068Z,73.36
2022-09-10T05:50:37.882Z,73.38
2022-09-10T05:53:04.793Z,73.24
2022-09-10T05:55:32.552Z,73.17
2022-09-10T05:58:09.024Z,72.97
2022-09-10T06:00:37.164Z,73.09
2022-09-10T06:03:04.705Z,73.26
2022-09-10T06:05:50.844Z,72.77
2022-09-10T06:08:53.331Z,72.76
2022-09-10T06:11:26.877Z,72.39
2022-09-10T06:14:02.823Z,72.28
2022-09-10T06:16:38.203Z,72.43
2022-09-10T06:19:14.249Z,72.85
2022-09-10T06:21:51.692Z,72.65
2022-09-10T06:24:26.230Z,73.09
2022-09-10T06:27:22.626Z,73.23
2022-09-10T06:29:58.938Z,73.16
2022-09-10T06:32:26.085Z,73.13
2022-09-10T06:37:49.746Z,73.17
2022-09-10T06:40:27.842Z,73.07
2022-09-10T06:43:18.825Z,73.06
2022-09-10T06:46:54.930Z,72.70
2022-09-10T06:49:46.036Z,72.70
2022-09-10T06:52:22.900Z,72.50
2022-09-10T06:55:13.803Z,72.47
2022-09-10T06:57:45.230Z,72.49
2022-09-10T07:00:22.754Z,72.34
2022-09-10T07:03:02.483Z,72.31
2022-09-10T07:06:03.761Z,71.98
2022-09-10T07:08:43.074Z,71.92
2022-09-10T07:11:21.854Z,71.98
2022-09-10T07:13:59.352Z,72.15
2022-09-10T07:17:02.505Z,72.45
2022-09-10T07:19:47.910Z,72.60
2022-09-10T07:25:26.213Z,72.54
2022-09-10T07:28:22.725Z,72.32
2022-09-10T07:30:52.345Z,72.31
2022-09-10T07:33:28.851Z,72.25
2022-09-10T07:36:06.534Z,72.12
2022-09-10T07:38:43.126Z,71.63
2022-09-10T07:41:19.935Z,71.63
2022-09-10T07:43:58.204Z,71.87
2022-09-10T07:47:03.384Z,71.84
2022-09-10T07:50:04.800Z,71.91
2022-09-10T07:52:43.799Z,71.90
2022-09-10T07:55:19.733Z,71.57
2022-09-10T07:57:59.536Z,71.49
2022-09-10T08:01:02.298Z,71.03
2022-09-10T08:06:26.841Z,70.77
2022-09-10T08:09:09.557Z,70.75
2022-09-10T08:11:49.661Z,70.50
2022-09-10T08:14:26.737Z,70.79
2022-09-10T08:17:05.653Z,70.76
2022-09-10T08:19:44.014Z,70.40
2022-09-10T08:22:21.418Z,70.17
2022-09-10T08:25:04.637Z,70.27
2022-09-10T08:30:26.124Z,70.45
2022-09-10T08:33:02.762Z,70.43
2022-09-10T08:36:04.408Z,70.36
2022-09-10T08:38:46.292Z,70.42
2022-09-10T08:41:47.165Z,70.49
2022-09-10T08:45:02.585Z,70.45
2022-09-10T08:48:19.398Z,70.19
2022-09-10T08:51:01.735Z,70.04
2022-09-10T08:54:02.939Z,69.79
2022-09-10T08:57:03.688Z,69.79
2022-09-10T09:00:04.231Z,69.87
2022-09-10T09:03:03.738Z,70.01
2022-09-10T09:06:05.692Z,69.23
2022-09-10T09:08:52.349Z,68.65
2022-09-10T09:12:18.943Z,68.33
2022-09-10T09:15:11.572Z,67.74
2022-09-10T09:17:57.476Z,67.27
2022-09-10T09:21:08.448Z,66.81
2022-09-10T09:24:18.614Z,66.49
2022-09-10T09:27:04.618Z,66.19
2022-09-10T09:30:57.181Z,66.03
2022-09-10T09:33:33.694Z,65.89
2022-09-10T09:36:15.642Z,65.31
2022-09-10T09:38:52.722Z,64.57
2022-09-10T09:41:28.263Z,64.18
2022-09-10T09:45:53.435Z,63.46
2022-09-10T09:48:53.672Z,62.54
2022-09-10T09:51:35.414Z,62.35
2022-09-10T09:57:23.857Z,62.04
2022-09-10T10:00:31.814Z,61.07
2022-09-10T10:03:20.474Z,61.15
2022-09-10T10:05:49.390Z,59.56
2022-09-10T10:08:31.756Z,59.89
2022-09-10T10:11:08.904Z,60.81
2022-09-10T10:14:22.768Z,63.46
2022-09-10T10:17:01.071Z,64.61
2022-09-10T10:22:32.231Z,64.75
2022-09-10T10:25:38.178Z,63.88
2022-09-10T10:28:20.432Z,63.69
2022-09-10T10:33:15.592Z,63.10
2022-09-10T10:36:12.352Z,62.95
2022-09-10T10:39:19.288Z,62.93
2022-09-10T10:42:33.329Z,62.18
2022-09-10T10:45:06.222Z,62.06
2022-09-10T10:48:32.832Z,59.96
2022-09-10T10:51:40.662Z,61.06
2022-09-10T10:55:12.522Z,57.96
2022-09-10T10:58:29.082Z,57.65
2022-09-10T11:01:06.352Z,59.44
2022-09-10T11:04:19.943Z,63.12
2022-09-10T11:07:03.790Z,64.61
2022-09-10T11:09:58.567Z,65.04
2022-09-10T11:12:41.918Z,64.91
2022-09-10T11:16:01.336Z,63.10
2022-09-10T11:18:59.337Z,58.73
2022-09-10T11:21:58.732Z,59.52
2022-09-10T11:25:00.518Z,62.46
2022-09-10T11:27:35.939Z,63.45
2022-09-10T11:30:13.621Z,62.85
2022-09-10T11:33:00.401Z,63.08
2022-09-10T11:35:29.889Z,63.07
2022-09-10T11:38:26.189Z,62.94
2022-09-10T11:41:17.572Z,62.72
2022-09-10T11:43:59.942Z,62.68
2022-09-10T11:46:35.162Z,62.12
2022-09-10T11:49:07.705Z,61.92
2022-09-10T11:51:39.706Z,61.92
2022-09-10T11:54:16.861Z,61.92
2022-09-10T11:56:59.719Z,61.91
2022-09-10T11:59:42.629Z,61.76
2022-09-10T12:02:38.220Z,61.37
2022-09-10T12:05:54.609Z,61.53
2022-09-10T12:08:55.977Z,61.66
2022-09-10T12:11:40.802Z,61.54
2022-09-10T12:14:19.733Z,61.42
2022-09-10T12:17:03.399Z,61.58
2022-09-10T12:19:55.533Z,61.49
2022-09-10T12:22:39.838Z,61.45
2022-09-10T12:25:16.113Z,61.19
2022-09-10T12:28:34.785Z,61.23
2022-09-10T12:31:15.096Z,61.11
2022-09-10T12:34:16.101Z,61.03
2022-09-10T12:37:21.734Z,60.89
2022-09-10T12:40:26.054Z,60.63
2022-09-10T12:43:40.595Z,60.68
2022-09-10T12:46:19.498Z,60.35
2022-09-10T12:49:01.117Z,61.02
2022-09-10T12:52:09.994Z,61.11
2022-09-10T12:55:08.486Z,61.09
2022-09-10T12:58:24.164Z,61.14
2022-09-10T13:01:43.899Z,60.83
2022-09-10T13:04:29.151Z,60.83
2022-09-10T13:07:20.151Z,60.86
2022-09-10T13:10:04.560Z,60.67
2022-09-10T13:12:42.071Z,60.44
2022-09-10T13:15:26.920Z,60.34
2022-09-10T13:17:54.694Z,60.32
2022-09-10T13:20:22.617Z,60.30
2022-09-10T13:23:08.697Z,60.32
2022-09-10T13:25:40.018Z,60.55
2022-09-10T13:28:29.934Z,59.94
2022-09-10T13:31:10.468Z,60.25
2022-09-10T13:33:50.285Z,60.44
2022-09-10T13:37:04.791Z,60.74
2022-09-10T13:39:41.725Z,60.42
2022-09-10T13:42:33.644Z,60.62
2022-09-10T13:45:24.573Z,60.48
2022-09-10T13:48:06.290Z,61.19
2022-09-10T13:50:58.358Z,61.41
2022-09-10T13:53:36.423Z,61.04
2022-09-10T13:56:23.078Z,60.56
2022-09-10T13:59:02.233Z,60.50
2022-09-10T14:01:49.310Z,60.86
2022-09-10T14:04:40.864Z,61.01
2022-09-10T14:07:22.023Z,61.16
2022-09-10T14:10:02.374Z,61.25
2022-09-10T14:12:39.137Z,61.38
2022-09-10T14:15:19.218Z,61.60
2022-09-10T14:18:20.294Z,61.45
2022-09-10T14:21:27.043Z,61.48
2022-09-10T14:24:04.052Z,61.49
2022-09-10T14:26:40.807Z,61.62
2022-09-10T14:29:24.580Z,61.48
2022-09-10T14:32:24.613Z,61.65
2022-09-10T14:35:39.277Z,61.68
2022-09-10T14:40:47.631Z,60.71
2022-09-10T14:43:31.058Z,61.66
2022-09-10T14:46:10.103Z,62.78
2022-09-10T14:49:19.552Z,63.04
2022-09-10T14:51:47.382Z,62.88
2022-09-10T14:56:32.696Z,62.67
2022-09-10T14:59:17.851Z,62.91
2022-09-10T15:01:54.993Z,62.83
2022-09-10T15:04:30.877Z,62.52
2022-09-10T15:07:08.915Z,62.35
2022-09-10T15:09:45.082Z,62.53
2022-09-10T15:12:29.389Z,62.67
2022-09-10T15:15:06.921Z,62.65
2022-09-10T15:17:42.832Z,62.59
2022-09-10T15:20:18.951Z,62.52
2022-09-10T15:23:21.658Z,62.63
2022-09-10T15:26:22.170Z,62.59
2022-09-10T15:29:23.646Z,62.39
2022-09-10T15:32:24.008Z,62.58
2022-09-10T15:35:24.415Z,62.53
2022-09-10T15:38:25.186Z,62.38
2022-09-10T15:40:53.914Z,62.38
2022-09-10T15:44:26.094Z,62.79
2022-09-10T15:46:53.897Z,62.54
2022-09-10T15:49:44.326Z,62.95
2022-09-10T15:52:20.455Z,62.99
2022-09-10T15:54:48.181Z,62.95
2022-09-10T15:57:24.448Z,63.03
2022-09-10T16:00:23.942Z,62.86
2022-09-10T16:03:25.347Z,63.12
2022-09-10T16:05:53.006Z,63.18
2022-09-10T16:08:29.946Z,63.51
2022-09-10T16:11:11.752Z,63.44
2022-09-10T16:13:48.659Z,63.58
2022-09-10T16:16:27.164Z,63.18
2022-09-10T16:19:27.888Z,63.23
2022-09-10T16:22:28.156Z,63.24
2022-09-10T16:25:29.526Z,63.16
2022-09-10T16:28:13.916Z,63.37
2022-09-10T16:30:51.581Z,63.43
2022-09-10T16:33:27.388Z,63.44
2022-09-10T16:36:27.029Z,63.32
2022-09-10T16:39:28.960Z,63.18
2022-09-10T16:41:56.574Z,63.42
2022-09-10T16:44:46.254Z,63.25
2022-09-10T16:47:22.709Z,63.21
2022-09-10T16:49:52.384Z,63.36
2022-09-10T16:52:28.887Z,63.09
2022-09-10T16:55:06.985Z,63.16
2022-09-10T16:57:43.701Z,63.90
2022-09-10T17:00:21.213Z,63.95
2022-09-10T17:02:51.001Z,63.92
2022-09-10T17:05:27.288Z,64.28
2022-09-10T17:08:29.171Z,64.06
2022-09-10T17:11:05.517Z,64.09
2022-09-10T17:13:35.889Z,64.00
2022-09-10T17:16:21.471Z,64.35
2022-09-10T17:19:11.684Z,64.17
2022-09-10T17:21:51.552Z,64.50
2022-09-10T17:24:20.974Z,64.83
2022-09-10T17:26:57.646Z,64.69
2022-09-10T17:29:34.282Z,64.66
2022-09-10T17:32:10.271Z,64.56
2022-09-10T17:34:47.382Z,64.53
2022-09-10T17:37:24.550Z,64.30
2022-09-10T17:40:09.250Z,64.25
2022-09-10T17:42:45.248Z,64.42
2022-09-10T17:45:22.474Z,64.49
2022-09-10T17:47:50.061Z,64.37
2022-09-10T17:50:27.519Z,64.56
2022-09-10T17:53:03.323Z,64.44
2022-09-10T17:55:33.837Z,64.40
2022-09-10T17:58:16.362Z,64.35
2022-09-10T18:00:49.498Z,64.60
2022-09-10T18:03:20.709Z,64.62
2022-09-10T18:06:11.867Z,64.61
2022-09-10T18:08:41.922Z,64.58
2022-09-10T18:11:21.555Z,64.42
2022-09-10T18:13:58.852Z,64.38
2022-09-10T18:16:36.298Z,65.09
2022-09-10T18:19:15.830Z,65.28
2022-09-10T18:21:52.354Z,65.46
2022-09-10T18:24:28.544Z,65.67
2022-09-10T18:27:05.390Z,65.68
2022-09-10T18:29:43.073Z,65.32
2022-09-10T18:32:19.429Z,65.32
2022-09-10T18:34:57.271Z,65.72
2022-09-10T18:37:33.801Z,65.66
2022-09-10T18:40:34.792Z,65.82
2022-09-10T18:43:02.489Z,65.86
2022-09-10T18:45:38.745Z,65.81
2022-09-10T18:48:15.212Z,66.13
2022-09-10T18:50:51.432Z,66.17
2022-09-10T18:53:19.126Z,66.14
2022-09-10T18:55:56.252Z,66.22
2022-09-10T18:58:32.837Z,66.20
2022-09-10T19:01:11.578Z,66.39
2022-09-10T19:03:49.180Z,66.35
2022-09-10T19:06:27.697Z,66.49
2022-09-10T19:09:23.706Z,66.80
2022-09-10T19:12:00.498Z,66.73
2022-09-10T19:14:38.237Z,66.63
2022-09-10T19:17:15.837Z,66.54
2022-09-10T19:19:52.256Z,66.54
2022-09-10T19:22:28.213Z,66.47
2022-09-10T19:25:03.718Z,66.47
2022-09-10T19:27:55.065Z,66.33
2022-09-10T19:30:37.673Z,66.49
2022-09-10T19:33:16.264Z,66.49
2022-09-10T19:35:56.068Z,66.40
2022-09-10T19:38:37.839Z,66.41
2022-09-10T19:41:18.690Z,66.47
2022-09-10T19:43:56.422Z,66.51
2022-09-10T19:46:33.434Z,66.34
2022-09-10T19:49:01.486Z,66.07
2022-09-10T19:53:16.134Z,66.13
2022-09-10T19:55:52.796Z,66.01
2022-09-10T19:58:29.716Z,66.03
2022-09-10T20:01:23.644Z,66.13
2022-09-10T20:04:01.592Z,66.00
2022-09-10T20:06:38.599Z,66.00
2022-09-10T20:09:17.193Z,66.05
2022-09-10T20:11:53.601Z,66.14
2022-09-10T20:14:30.036Z,66.02
2022-09-10T20:17:06.244Z,65.97
2022-09-10T20:20:38.037Z,66.10
2022-09-10T20:23:05.882Z,66.11
2022-09-10T20:25:42.902Z,66.23
2022-09-10T20:28:19.842Z,66.01
2022-09-10T20:30:48.057Z,66.14
2022-09-10T20:35:24.550Z,66.10
2022-09-10T20:38:00.909Z,66.09
2022-09-10T20:40:36.829Z,66.20
2022-09-10T20:43:37.524Z,66.31
2022-09-10T20:46:37.914Z,66.41
2022-09-10T20:49:37.837Z,66.39
2022-09-10T20:52:37.833Z,66.57
2022-09-10T20:55:37.778Z,66.60
2022-09-10T20:58:05.451Z,66.52
2022-09-10T21:02:03.452Z,66.62
2022-09-10T21:04:32.777Z,66.15
2022-09-10T21:09:59.368Z,66.10
2022-09-10T21:12:35.505Z,66.59
2022-09-10T21:15:03.455Z,66.36
2022-09-10T21:17:31.845Z,66.77
2022-09-10T21:19:59.893Z,66.39
2022-09-10T21:22:27.962Z,66.60
2022-09-10T21:25:05.938Z,66.56
2022-09-10T21:27:42.403Z,67.21
2022-09-10T21:30:42.281Z,67.11
2022-09-10T21:33:09.906Z,67.23
2022-09-10T21:36:02.763Z,67.17
2022-09-10T21:38:40.327Z,67.03
2022-09-10T21:41:47.494Z,67.20
2022-09-10T21:44:23.001Z,66.85
2022-09-10T21:47:00.297Z,67.79
2022-09-10T21:49:36.484Z,67.46
2022-09-10T21:52:21.369Z,67.56
2022-09-10T21:54:57.358Z,67.45
2022-09-10T21:57:33.396Z,67.45
2022-09-10T22:00:01.357Z,67.53
2022-09-10T22:02:37.502Z,67.72
2022-09-10T22:05:36.941Z,68.10
2022-09-10T22:08:37.125Z,67.49
2022-09-10T22:11:38.250Z,67.27
2022-09-10T22:14:38.255Z,67.91
2022-09-10T22:17:06.028Z,67.73
2022-09-10T22:21:10.336Z,68.63
2022-09-10T22:23:48.001Z,68.45
2022-09-10T22:26:28.096Z,68.37
2022-09-10T22:29:04.326Z,68.29
2022-09-10T22:31:33.616Z,67.57
2022-09-10T22:36:28.769Z,67.66
2022-09-10T22:39:07.856Z,67.87
2022-09-10T22:41:44.840Z,67.79
2022-09-10T22:44:45.327Z,68.04
2022-09-10T22:47:44.975Z,68.07
2022-09-10T22:50:45.595Z,68.08
2022-09-10T22:53:24.391Z,67.75
2022-09-10T22:55:53.861Z,68.46
2022-09-10T23:00:29.132Z,68.80
2022-09-10T23:03:05.125Z,68.21
2022-09-10T23:05:41.666Z,68.01
2022-09-10T23:08:45.708Z,68.11
2022-09-10T23:11:46.088Z,68.37
2022-09-10T23:14:45.881Z,68.64
2022-09-10T23:17:46.240Z,69.15
2022-09-10T23:20:13.948Z,68.57
2022-09-10T23:23:05.212Z,68.15
2022-09-10T23:25:41.739Z,68.44
2022-09-10T23:28:42.345Z,68.58
2022-09-10T23:31:20.869Z,68.84
2022-09-10T23:34:04.979Z,68.72
2022-09-10T23:36:38.035Z,68.25
2022-09-10T23:39:17.118Z,68.81
2022-09-10T23:41:44.987Z,68.90
2022-09-10T23:44:45.350Z,68.94
2022-09-10T23:47:21.220Z,68.38
2022-09-10T23:49:49.018Z,68.87
2022-09-10T23:52:16.604Z,68.70
2022-09-10T23:54:44.575Z,69.04
2022-09-10T23:57:12.965Z,68.53
2022-09-10T23:59:41.181Z,68.97
